createdAt,value
2023-03-07T00:01:07.210Z,15.10
2023-03-07T00:06:08.718Z,17.73
2023-03-07T00:11:07.357Z,14.30
2023-03-07T00:16:10.215Z,18.27
2023-03-07T00:21:09.558Z,16.25
2023-03-07T00:26:08.521Z,21.30
2023-03-07T00:31:07.633Z,18.80
2023-03-07T00:36:05.508Z,20.08
2023-03-07T00:41:11.024Z,20.75
2023-03-07T00:46:07.825Z,23.33
2023-03-07T00:51:05.642Z,20.65
2023-03-07T00:56:03.634Z,23.17
2023-03-07T01:01:00.545Z,23.77
2023-03-07T01:05:56.957Z,21.95
2023-03-07T01:10:58.923Z,23.20
2023-03-07T01:15:55.910Z,21.58
2023-03-07T01:20:52.361Z,23.83
2023-03-07T01:25:48.743Z,23.75
2023-03-07T01:30:45.169Z,25.83
2023-03-07T01:35:42.182Z,23.65
2023-03-07T01:40:39.405Z,24.88
2023-03-07T01:45:35.762Z,28.63
2023-03-07T01:50:32.202Z,23.38
2023-03-07T01:55:33.973Z,25.00
2023-03-07T02:00:30.495Z,24.58
2023-03-07T02:05:33.317Z,29.48
2023-03-07T02:10:32.742Z,22.08
2023-03-07T02:15:29.223Z,23.35
2023-03-07T02:20:48.586Z,20.55
2023-03-07T02:25:54.675Z,21.75
2023-03-07T02:30:58.937Z,21.33
2023-03-07T02:35:58.423Z,22.13
2023-03-07T02:40:55.467Z,18.90
2023-03-07T02:45:51.935Z,19.20
2023-03-07T02:50:48.766Z,21.23
2023-03-07T02:55:45.179Z,21.05
2023-03-07T03:00:41.596Z,21.77
2023-03-07T03:05:38.034Z,22.45
2023-03-07T03:10:34.465Z,22.50
2023-03-07T03:15:30.956Z,25.88
2023-03-07T03:20:27.989Z,23.20
2023-03-07T03:25:25.122Z,23.05
2023-03-07T03:30:21.685Z,22.88
2023-03-07T03:35:18.231Z,19.98
2023-03-07T03:40:15.791Z,21.58
2023-03-07T03:45:12.715Z,19.17
2023-03-07T03:50:10.024Z,19.30
2023-03-07T03:55:06.621Z,20.25
2023-03-07T04:00:05.431Z,18.98
2023-03-07T04:05:01.962Z,17.42
2023-03-07T04:09:58.409Z,18.20
2023-03-07T04:14:54.833Z,17.02
2023-03-07T04:19:51.205Z,18.33
2023-03-07T04:24:47.632Z,15.98
2023-03-07T04:29:44.101Z,15.68
2023-03-07T04:34:40.511Z,15.30
2023-03-07T04:39:37.040Z,12.70
2023-03-07T04:44:33.479Z,11.88
2023-03-07T04:49:29.926Z,11.63
2023-03-07T04:54:26.326Z,10.23
2023-03-07T04:59:22.770Z,12.35
2023-03-07T05:04:19.231Z,10.27
2023-03-07T05:09:15.666Z,9.50
2023-03-07T05:14:12.050Z,7.78
2023-03-07T05:19:09.296Z,7.65
2023-03-07T05:24:06.136Z,7.18
2023-03-07T05:29:03.152Z,6.28
2023-03-07T05:33:59.665Z,6.50
2023-03-07T05:38:57.039Z,5.78
2023-03-07T05:43:55.216Z,6.13
2023-03-07T05:48:51.708Z,5.68
2023-03-07T05:53:48.170Z,5.57
2023-03-07T05:58:44.882Z,6.03
2023-03-07T06:03:42.819Z,5.47
2023-03-07T06:08:39.258Z,5.82
2023-03-07T06:13:35.689Z,6.70
2023-03-07T06:18:32.176Z,5.25
2023-03-07T06:23:30.783Z,6.93
2023-03-07T06:28:27.856Z,6.25
2023-03-07T06:33:24.362Z,6.53
2023-03-07T06:38:20.828Z,6.10
2023-03-07T06:43:17.189Z,5.38
2023-03-07T06:48:13.616Z,5.32
2023-03-07T06:53:10.087Z,5.57
2023-03-07T06:58:06.573Z,6.35
2023-03-07T07:03:03.029Z,5.78
2023-03-07T07:07:59.476Z,5.63
2023-03-07T07:12:56.932Z,5.88
2023-03-07T07:17:53.567Z,5.53
2023-03-07T07:22:49.987Z,5.50
2023-03-07T07:27:46.623Z,5.38
2023-03-07T07:32:44.880Z,6.15
2023-03-07T07:37:41.602Z,5.85
2023-03-07T07:42:38.028Z,6.47
2023-03-07T07:47:34.437Z,5.40
2023-03-07T07:52:30.830Z,5.53
2023-03-07T07:57:27.212Z,5.22
2023-03-07T08:02:23.727Z,5.40
2023-03-07T08:07:20.142Z,5.22
2023-03-07T08:12:16.876Z,6.55
2023-03-07T08:17:13.279Z,6.03
2023-03-07T08:22:09.768Z,5.53
2023-03-07T08:27:06.242Z,5.82
2023-03-07T08:32:02.767Z,5.68
2023-03-07T08:36:59.250Z,5.88
2023-03-07T08:41:56.723Z,5.57
2023-03-07T08:46:53.223Z,6.28
2023-03-07T08:51:50.071Z,6.25
2023-03-07T08:56:46.465Z,5.63
2023-03-07T09:01:42.951Z,6.30
2023-03-07T09:06:39.683Z,7.28
2023-03-07T09:11:36.352Z,5.90
2023-03-07T09:16:32.841Z,6.35
2023-03-07T09:21:29.506Z,5.32
2023-03-07T09:26:27.044Z,6.85
2023-03-07T09:31:23.570Z,5.55
2023-03-07T09:36:20.219Z,5.97
2023-03-07T09:41:41.593Z,7.03
2023-03-07T09:47:26.857Z,5.53
2023-03-07T09:52:26.940Z,5.35
2023-03-07T09:57:28.452Z,6.03
2023-03-07T10:02:34.559Z,5.25
2023-03-07T10:07:32.494Z,5.00
2023-03-07T10:12:41.407Z,4.88
2023-03-07T10:18:06.493Z,6.03
2023-03-07T10:23:22.688Z,5.70
2023-03-07T10:28:24.112Z,6.50
2023-03-07T10:33:20.866Z,5.13
2023-03-07T10:38:30.414Z,4.82
2023-03-07T10:43:34.649Z,4.82
2023-03-07T10:48:32.265Z,5.80
2023-03-07T10:53:36.096Z,5.75
2023-03-07T10:58:32.467Z,5.30
2023-03-07T11:03:51.423Z,6.78
2023-03-07T11:08:48.257Z,7.03
2023-03-07T11:14:05.288Z,5.28
2023-03-07T11:19:03.982Z,5.68
2023-03-07T11:24:06.546Z,6.63
2023-03-07T11:34:20.814Z,5.53
2023-03-07T11:39:22.978Z,6.15
2023-03-07T11:44:52.864Z,6.97
2023-03-07T11:49:55.334Z,5.72
2023-03-07T11:55:13.428Z,6.60
2023-03-07T12:00:32.468Z,5.55
2023-03-07T12:05:28.830Z,6.03
2023-03-07T12:10:48.638Z,5.93
2023-03-07T12:16:04.874Z,5.15
2023-03-07T12:21:16.334Z,5.47
2023-03-07T12:26:26.972Z,5.18
2023-03-07T12:31:32.685Z,5.30
2023-03-07T12:36:50.776Z,5.53
2023-03-07T12:42:02.102Z,5.65
2023-03-07T12:47:06.425Z,6.20
2023-03-07T12:52:06.448Z,5.60
2023-03-07T12:57:08.567Z,5.60
2023-03-07T13:02:11.737Z,5.43
2023-03-07T13:07:29.849Z,4.90
2023-03-07T13:12:32.119Z,5.85
2023-03-07T13:17:31.465Z,6.05
2023-03-07T13:22:27.884Z,6.72
2023-03-07T13:27:28.085Z,6.38
2023-03-07T13:32:52.284Z,6.13
2023-03-07T13:37:54.370Z,5.93
2023-03-07T13:42:52.036Z,5.65
2023-03-07T13:47:48.581Z,5.88
2023-03-07T13:52:46.209Z,5.53
2023-03-07T13:57:42.900Z,5.07
2023-03-07T14:02:42.960Z,5.82
2023-03-07T14:07:42.284Z,5.35
2023-03-07T14:13:13.473Z,4.82
2023-03-07T14:18:24.102Z,5.30
2023-03-07T14:23:46.990Z,5.20
2023-03-07T14:29:13.257Z,5.40
2023-03-07T14:34:28.418Z,5.20
2023-03-07T14:39:35.740Z,5.13
2023-03-07T14:44:38.052Z,5.20
2023-03-07T14:49:59.239Z,5.20
2023-03-07T14:54:56.964Z,5.13
2023-03-07T15:00:20.058Z,4.47
2023-03-07T15:05:19.772Z,4.93
2023-03-07T15:10:33.477Z,4.88
2023-03-07T15:15:35.295Z,6.60
2023-03-07T15:20:33.144Z,5.00
2023-03-07T15:25:30.021Z,5.00
2023-03-07T15:30:33.565Z,5.30
2023-03-07T15:35:30.209Z,5.60
2023-03-07T15:40:26.858Z,5.60
2023-03-07T15:45:31.680Z,5.40
2023-03-07T15:50:29.617Z,5.47
2023-03-07T15:55:26.954Z,5.15
2023-03-07T16:00:40.011Z,5.18
2023-03-07T16:10:33.520Z,4.85
2023-03-07T16:15:29.995Z,5.72
2023-03-07T16:20:28.036Z,4.97
2023-03-07T16:25:27.827Z,5.88
2023-03-07T16:30:29.969Z,5.43
2023-03-07T16:35:28.336Z,5.10
2023-03-07T16:40:26.142Z,4.90
2023-03-07T16:45:26.227Z,5.50
2023-03-07T16:50:25.991Z,5.78
2023-03-07T16:55:23.261Z,5.00
2023-03-07T17:00:24.896Z,6.45
2023-03-07T17:05:25.495Z,5.23
2023-03-07T17:10:23.560Z,5.80
2023-03-07T17:15:24.420Z,5.78
2023-03-07T17:20:21.473Z,5.03
2023-03-07T17:25:18.078Z,5.28
2023-03-07T17:30:23.204Z,5.63
2023-03-07T17:35:19.966Z,6.40
2023-03-07T17:40:16.934Z,6.78
2023-03-07T17:45:13.893Z,6.18
2023-03-07T17:50:11.936Z,6.38
2023-03-07T17:55:09.751Z,5.80
2023-03-07T18:00:12.319Z,6.35
2023-03-07T18:05:08.875Z,6.18
2023-03-07T18:10:08.753Z,6.10
2023-03-07T18:15:08.840Z,5.90
2023-03-07T18:20:11.265Z,5.95
2023-03-07T18:30:06.290Z,5.70
2023-03-07T18:35:03.613Z,5.82
2023-03-07T18:40:00.055Z,5.15
2023-03-07T18:44:56.499Z,5.15
2023-03-07T18:49:52.943Z,5.10
2023-03-07T18:54:49.571Z,5.50
2023-03-07T18:59:46.105Z,5.43
2023-03-07T19:04:42.504Z,5.72
2023-03-07T19:09:39.121Z,5.60
2023-03-07T19:14:35.607Z,5.70
2023-03-07T19:19:32.091Z,6.07
2023-03-07T19:24:28.468Z,5.20
2023-03-07T19:29:24.894Z,5.35
2023-03-07T19:34:21.314Z,5.75
2023-03-07T19:39:20.229Z,5.63
2023-03-07T19:44:17.380Z,5.90
2023-03-07T19:49:17.245Z,5.95
2023-03-07T19:54:14.344Z,6.55
2023-03-07T19:59:11.638Z,5.60
2023-03-07T20:04:13.032Z,5.70
2023-03-07T20:09:12.760Z,5.75
2023-03-07T20:14:10.461Z,5.70
2023-03-07T20:19:08.666Z,5.47
2023-03-07T20:24:06.800Z,5.38
2023-03-07T20:29:05.601Z,5.20
2023-03-07T20:34:02.805Z,5.50
2023-03-07T20:39:07.701Z,6.80
2023-03-07T20:44:06.461Z,8.52
2023-03-07T20:49:03.178Z,6.63
2023-03-07T20:54:01.967Z,5.25
2023-03-07T20:58:59.829Z,5.43
2023-03-07T21:04:00.324Z,5.43
2023-03-07T21:08:59.286Z,5.05
2023-03-07T21:13:55.694Z,5.55
2023-03-07T21:18:52.096Z,5.15
2023-03-07T21:23:48.902Z,5.32
2023-03-07T21:28:45.889Z,5.38
2023-03-07T21:33:44.483Z,5.05
2023-03-07T21:38:41.848Z,5.20
2023-03-07T21:43:38.388Z,5.55
2023-03-07T21:48:34.919Z,5.28
2023-03-07T21:53:31.976Z,5.15
2023-03-07T21:58:31.108Z,5.13
2023-03-07T22:03:29.016Z,5.53
2023-03-07T22:08:25.452Z,5.72
2023-03-07T22:13:21.827Z,5.15
2023-03-07T22:18:18.278Z,5.47
2023-03-07T22:23:14.747Z,5.38
2023-03-07T22:28:11.231Z,4.85
2023-03-07T22:33:08.588Z,4.70
2023-03-07T22:38:05.013Z,5.00
2023-03-07T22:43:01.432Z,5.30
2023-03-07T22:47:59.795Z,4.75
2023-03-07T22:52:56.258Z,4.97
2023-03-07T22:57:52.688Z,5.00
2023-03-07T23:02:49.303Z,5.35
2023-03-07T23:07:48.319Z,4.88
2023-03-07T23:12:45.097Z,5.72
2023-03-07T23:17:44.545Z,4.72
2023-03-07T23:22:42.753Z,5.03
2023-03-07T23:27:39.560Z,4.72
2023-03-07T23:32:36.154Z,4.85
2023-03-07T23:37:32.641Z,4.70
2023-03-07T23:42:29.041Z,5.35
2023-03-07T23:47:25.426Z,5.38
2023-03-07T23:52:21.891Z,4.68
2023-03-07T23:57:18.308Z,4.53
